createdAt,value
2017-10-02T00:00:28.107Z,24.83
2017-10-02T00:02:34.784Z,24.73
2017-10-02T00:04:40.172Z,23.27
2017-10-02T00:06:47.952Z,19.87
2017-10-02T00:08:57.086Z,18.20
2017-10-02T00:11:08.318Z,23.97
2017-10-02T00:13:17.652Z,18.57
2017-10-02T00:15:35.413Z,18.97
2017-10-02T00:17:43.743Z,19.70
2017-10-02T00:19:51.058Z,16.93
2017-10-02T00:21:59.563Z,16.57
2017-10-02T00:24:08.523Z,13.20
2017-10-02T00:26:18.792Z,14.40
2017-10-02T00:28:26.641Z,13.90
2017-10-02T00:30:36.206Z,12.03
2017-10-02T00:32:46.451Z,12.80
2017-10-02T00:34:51.989Z,11.97
2017-10-02T00:37:00.851Z,12.00
2017-10-02T00:39:07.374Z,12.67
2017-10-02T00:41:13.998Z,10.90
2017-10-02T00:43:20.786Z,9.37
2017-10-02T00:45:27.137Z,10.43
2017-10-02T00:47:42.829Z,10.47
2017-10-02T00:49:52.214Z,9.63
2017-10-02T00:52:03.125Z,8.67
2017-10-02T00:54:17.145Z,8.13
2017-10-02T00:56:23.304Z,8.60
2017-10-02T00:58:32.137Z,8.30
2017-10-02T01:00:38.114Z,12.90
2017-10-02T01:02:44.567Z,8.50
2017-10-02T01:04:54.395Z,7.73
2017-10-02T01:07:09.493Z,8.73
2017-10-02T01:09:17.137Z,8.03
2017-10-02T01:11:28.369Z,8.13
2017-10-02T01:13:38.694Z,6.87
2017-10-02T01:15:54.127Z,6.67
2017-10-02T01:20:44.608Z,6.90
2017-10-02T01:22:57.283Z,8.23
2017-10-02T01:25:23.640Z,7.27
2017-10-02T01:27:36.877Z,6.73
2017-10-02T01:29:46.179Z,7.37
2017-10-02T01:31:52.973Z,7.10
2017-10-02T01:33:59.201Z,6.07
2017-10-02T01:36:05.914Z,6.13
2017-10-02T01:38:13.305Z,12.20
2017-10-02T01:40:21.571Z,7.47
2017-10-02T01:42:30.011Z,9.93
2017-10-02T01:44:37.023Z,5.80
2017-10-02T01:46:48.551Z,6.27
2017-10-02T01:48:54.685Z,5.60
2017-10-02T01:51:00.814Z,5.83
2017-10-02T01:53:13.107Z,5.67
2017-10-02T01:55:25.095Z,5.50
2017-10-02T01:57:38.239Z,5.60
2017-10-02T01:59:46.151Z,5.47
2017-10-02T02:01:57.706Z,5.73
2017-10-02T02:04:06.854Z,5.50
2017-10-02T02:06:12.700Z,5.53
2017-10-02T02:08:18.599Z,5.70
2017-10-02T02:12:48.614Z,5.53
2017-10-02T02:14:54.230Z,5.40
2017-10-02T02:17:00.207Z,5.20
2017-10-02T02:19:09.033Z,5.53
2017-10-02T02:21:15.434Z,5.57
2017-10-02T02:23:27.034Z,5.73
2017-10-02T02:25:38.759Z,5.70
2017-10-02T02:27:44.877Z,4.93
2017-10-02T02:29:55.285Z,5.67
2017-10-02T02:32:01.336Z,5.43
2017-10-02T02:34:08.821Z,6.20
2017-10-02T02:36:14.623Z,5.40
2017-10-02T02:38:30.132Z,7.33
2017-10-02T02:40:36.639Z,5.33
2017-10-02T02:42:42.649Z,5.30
2017-10-02T02:44:53.144Z,4.40
2017-10-02T02:46:58.944Z,5.87
2017-10-02T02:49:05.730Z,5.43
2017-10-02T02:51:12.553Z,5.33
2017-10-02T02:53:17.642Z,5.37
2017-10-02T02:55:23.998Z,5.67
2017-10-02T02:57:30.453Z,4.90
2017-10-02T02:59:40.948Z,5.80
2017-10-02T03:01:47.101Z,5.30
2017-10-02T03:03:54.620Z,5.27
2017-10-02T03:06:03.531Z,5.47
2017-10-02T03:08:09.922Z,6.40
2017-10-02T03:10:16.497Z,4.90
2017-10-02T03:12:23.010Z,5.20
2017-10-02T03:14:30.873Z,5.17
2017-10-02T03:16:42.376Z,5.27
2017-10-02T03:18:48.780Z,4.67
2017-10-02T03:21:02.645Z,5.17
2017-10-02T03:23:11.796Z,4.93
2017-10-02T03:25:20.405Z,4.20
2017-10-02T03:27:27.984Z,4.70
2017-10-02T03:29:34.243Z,5.20
2017-10-02T03:31:40.088Z,5.17
2017-10-02T03:33:45.759Z,4.70
2017-10-02T03:35:53.439Z,4.40
2017-10-02T03:37:59.406Z,4.00
2017-10-02T03:40:05.077Z,5.20
2017-10-02T03:42:11.107Z,5.30
2017-10-02T03:44:18.807Z,4.43
2017-10-02T03:46:27.167Z,5.03
2017-10-02T03:48:33.216Z,4.63
2017-10-02T03:50:40.105Z,4.40
2017-10-02T03:52:48.245Z,4.37
2017-10-02T03:54:53.624Z,4.83
2017-10-02T03:56:58.938Z,4.53
2017-10-02T03:59:05.484Z,3.93
2017-10-02T04:01:12.544Z,4.67
2017-10-02T04:03:19.354Z,4.20
2017-10-02T04:05:27.545Z,4.27
2017-10-02T04:07:34.138Z,4.30
2017-10-02T04:09:39.711Z,4.50
2017-10-02T04:11:46.212Z,4.53
2017-10-02T04:13:52.526Z,4.17
2017-10-02T04:15:57.900Z,3.97
2017-10-02T04:18:08.439Z,5.10
2017-10-02T04:20:17.585Z,4.20
2017-10-02T04:22:23.757Z,7.03
2017-10-02T04:24:34.013Z,4.40
2017-10-02T04:26:44.321Z,4.10
2017-10-02T04:28:50.102Z,5.20
2017-10-02T04:30:55.771Z,4.90
2017-10-02T04:33:01.414Z,4.37
2017-10-02T04:35:11.273Z,5.90
2017-10-02T04:37:17.814Z,3.73
2017-10-02T04:39:24.466Z,4.50
2017-10-02T04:41:36.375Z,4.93
2017-10-02T04:43:42.535Z,4.23
2017-10-02T04:45:49.079Z,4.07
2017-10-02T04:47:55.386Z,4.20
2017-10-02T04:50:05.103Z,3.97
2017-10-02T04:52:10.540Z,4.10
2017-10-02T04:54:17.108Z,4.00
2017-10-02T04:56:28.112Z,3.80
2017-10-02T04:58:39.223Z,6.47
2017-10-02T05:00:50.514Z,3.50
2017-10-02T05:03:01.381Z,4.40
2017-10-02T05:05:07.143Z,3.83
2017-10-02T05:07:14.817Z,3.70
2017-10-02T05:09:23.737Z,3.97
2017-10-02T05:11:30.655Z,3.80
2017-10-02T05:13:36.302Z,3.63
2017-10-02T05:15:43.592Z,4.07
2017-10-02T05:17:50.014Z,3.90
2017-10-02T05:19:58.606Z,4.13
2017-10-02T05:22:04.612Z,4.10
2017-10-02T05:24:10.131Z,4.17
2017-10-02T05:26:16.860Z,3.80
2017-10-02T05:28:22.663Z,3.93
2017-10-02T05:30:28.747Z,4.90
2017-10-02T05:32:35.185Z,3.90
2017-10-02T05:34:46.231Z,3.77
2017-10-02T05:36:52.295Z,3.37
2017-10-02T05:38:59.347Z,4.30
2017-10-02T05:41:07.939Z,4.20
2017-10-02T05:43:13.205Z,7.50
2017-10-02T05:45:19.789Z,11.73
2017-10-02T05:47:25.836Z,9.87
2017-10-02T05:49:32.868Z,135.07
2017-10-02T05:51:41.193Z,236.20
2017-10-02T05:53:50.085Z,341.27
2017-10-02T05:55:56.636Z,325.17
2017-10-02T05:58:02.392Z,350.00
2017-10-02T06:00:08.131Z,215.40
2017-10-02T06:02:14.019Z,188.30
2017-10-02T06:04:22.778Z,374.73
2017-10-02T06:06:33.105Z,454.43
2017-10-02T06:08:38.600Z,543.57
2017-10-02T06:10:44.614Z,440.60
2017-10-02T06:12:51.301Z,411.53
2017-10-02T06:14:57.530Z,343.43
2017-10-02T06:17:03.941Z,260.67
2017-10-02T06:19:10.047Z,324.23
2017-10-02T06:21:17.080Z,248.40
2017-10-02T06:23:23.374Z,201.60
2017-10-02T06:25:31.248Z,194.37
2017-10-02T06:27:38.883Z,173.27
2017-10-02T06:29:44.472Z,167.83
2017-10-02T06:31:53.309Z,113.47
2017-10-02T06:34:01.112Z,132.20
2017-10-02T06:36:06.515Z,103.90
2017-10-02T06:38:11.965Z,123.07
2017-10-02T06:40:26.018Z,126.37
2017-10-02T06:42:35.090Z,105.00
2017-10-02T06:44:44.468Z,102.27
2017-10-02T06:46:54.221Z,78.57
2017-10-02T06:49:03.834Z,86.10
2017-10-02T06:51:12.427Z,67.23
2017-10-02T06:53:23.773Z,66.10
2017-10-02T06:55:31.555Z,73.87
2017-10-02T06:57:38.485Z,53.23
2017-10-02T06:59:45.573Z,53.83
2017-10-02T07:01:52.906Z,43.97
2017-10-02T07:03:59.215Z,50.10
2017-10-02T07:06:11.509Z,42.93
2017-10-02T07:08:26.828Z,44.20
2017-10-02T07:10:37.242Z,43.83
2017-10-02T07:12:44.545Z,33.97
2017-10-02T07:14:50.890Z,29.47
2017-10-02T07:17:00.093Z,34.67
2017-10-02T07:19:05.880Z,27.70
2017-10-02T07:21:13.256Z,26.70
2017-10-02T07:23:20.515Z,25.77
2017-10-02T07:25:34.950Z,22.43
2017-10-02T07:27:40.532Z,19.90
2017-10-02T07:29:46.346Z,22.47
2017-10-02T07:31:52.618Z,19.40
2017-10-02T07:33:58.239Z,17.00
2017-10-02T07:36:11.907Z,15.80
2017-10-02T07:38:23.516Z,12.57
2017-10-02T07:40:29.489Z,13.47
2017-10-02T07:42:36.130Z,11.20
2017-10-02T07:44:45.962Z,10.60
2017-10-02T07:46:51.493Z,11.50
2017-10-02T07:48:58.212Z,9.00
2017-10-02T07:51:04.480Z,10.00
2017-10-02T07:53:10.004Z,7.30
2017-10-02T07:55:18.615Z,7.57
2017-10-02T07:57:33.719Z,7.90
2017-10-02T07:59:42.279Z,7.87
2017-10-02T08:01:52.149Z,6.93
2017-10-02T08:04:03.007Z,5.90
2017-10-02T08:06:10.671Z,5.37
2017-10-02T08:08:17.257Z,5.13
2017-10-02T08:10:28.387Z,4.37
2017-10-02T08:12:36.853Z,4.13
2017-10-02T08:14:43.751Z,4.80
2017-10-02T08:16:50.766Z,3.77
2017-10-02T08:19:02.785Z,5.00
2017-10-02T08:21:10.499Z,4.70
2017-10-02T08:23:19.371Z,3.70
2017-10-02T08:25:27.303Z,3.50
2017-10-02T08:27:36.176Z,2.70
2017-10-02T08:29:45.645Z,2.63
2017-10-02T08:31:54.996Z,5.10
2017-10-02T08:34:03.241Z,3.00
2017-10-02T08:36:09.553Z,3.13
2017-10-02T08:38:15.907Z,2.97
2017-10-02T08:40:29.271Z,2.90
2017-10-02T08:42:36.568Z,2.90
2017-10-02T08:44:42.817Z,3.73
2017-10-02T08:46:54.314Z,3.03
2017-10-02T08:49:07.896Z,2.60
2017-10-02T08:51:19.933Z,3.20
2017-10-02T08:53:37.717Z,2.97
2017-10-02T08:55:46.444Z,2.87
2017-10-02T08:58:40.414Z,2.30
2017-10-02T09:06:20.205Z,2.60
2017-10-02T09:08:40.005Z,3.00
2017-10-02T09:10:46.749Z,3.30
2017-10-02T09:12:54.745Z,2.60
2017-10-02T09:15:09.661Z,2.50
2017-10-02T09:17:16.442Z,2.80
2017-10-02T09:19:26.755Z,2.80
2017-10-02T09:24:16.330Z,3.57
2017-10-02T09:28:51.084Z,4.40
2017-10-02T09:30:59.775Z,2.70
2017-10-02T09:33:12.377Z,3.60
2017-10-02T09:35:21.704Z,2.50
2017-10-02T09:37:32.467Z,2.70
2017-10-02T09:39:41.493Z,2.73
2017-10-02T09:41:55.362Z,2.47
2017-10-02T09:44:02.949Z,3.40
2017-10-02T09:46:09.496Z,2.20
2017-10-02T09:48:24.117Z,3.40
2017-10-02T09:53:40.696Z,2.50
2017-10-02T09:55:46.029Z,2.07
2017-10-02T09:57:52.662Z,2.00
2017-10-02T09:59:58.991Z,3.30
2017-10-02T10:02:04.463Z,2.07
2017-10-02T10:04:10.235Z,3.10
2017-10-02T10:06:16.867Z,2.63
2017-10-02T10:08:22.550Z,2.10
2017-10-02T10:10:28.867Z,2.13
2017-10-02T10:12:35.216Z,2.67
2017-10-02T10:14:40.834Z,2.30
2017-10-02T10:16:47.095Z,2.43
2017-10-02T10:18:53.346Z,2.17
2017-10-02T10:20:59.942Z,5.90
2017-10-02T10:23:06.151Z,2.83
2017-10-02T10:25:12.056Z,2.53
2017-10-02T10:27:18.992Z,2.30
2017-10-02T10:29:25.231Z,2.13
2017-10-02T10:31:32.290Z,2.20
2017-10-02T10:33:38.425Z,2.60
2017-10-02T10:35:44.707Z,2.17
2017-10-02T10:37:50.712Z,3.93
2017-10-02T10:39:58.322Z,2.80
2017-10-02T10:42:05.104Z,2.40
2017-10-02T10:44:10.858Z,2.20
2017-10-02T10:46:17.432Z,3.30
2017-10-02T10:48:24.872Z,2.00
2017-10-02T10:50:31.875Z,2.10
2017-10-02T10:52:38.081Z,2.20
2017-10-02T10:54:46.273Z,4.73
2017-10-02T10:56:52.319Z,4.47
2017-10-02T10:58:57.828Z,2.43
2017-10-02T11:01:03.477Z,2.10
2017-10-02T11:03:09.138Z,2.03
2017-10-02T11:05:15.172Z,2.20
2017-10-02T11:07:21.533Z,2.10
2017-10-02T11:09:28.155Z,2.00
2017-10-02T11:11:34.431Z,1.90
2017-10-02T11:13:40.127Z,1.90
2017-10-02T11:15:47.854Z,1.97
2017-10-02T11:17:54.697Z,2.13
2017-10-02T11:20:00.832Z,1.50
2017-10-02T11:22:07.872Z,2.70
2017-10-02T11:24:15.775Z,1.60
2017-10-02T11:26:23.874Z,1.50
2017-10-02T11:28:33.270Z,1.60
2017-10-02T11:30:40.916Z,1.53
2017-10-02T11:32:47.446Z,2.00
2017-10-02T11:34:54.930Z,1.70
2017-10-02T11:37:02.709Z,1.67
2017-10-02T11:39:13.958Z,1.40
2017-10-02T11:41:25.313Z,1.63
2017-10-02T11:43:40.349Z,1.40
2017-10-02T11:45:47.887Z,1.53
2017-10-02T11:47:55.890Z,1.50
2017-10-02T11:50:01.457Z,2.07
2017-10-02T11:52:07.939Z,1.70
2017-10-02T11:54:17.939Z,1.50
2017-10-02T11:56:24.386Z,1.10
2017-10-02T11:58:33.587Z,1.60
2017-10-02T12:00:40.983Z,1.53
2017-10-02T12:02:46.467Z,2.90
2017-10-02T12:04:52.077Z,1.50
2017-10-02T12:06:57.806Z,1.50
2017-10-02T12:09:04.482Z,1.77
2017-10-02T12:11:10.436Z,1.37
2017-10-02T12:13:17.122Z,1.80
2017-10-02T12:15:23.173Z,1.33
2017-10-02T12:17:29.572Z,1.50
2017-10-02T12:19:37.159Z,1.53
2017-10-02T12:21:46.237Z,1.53
2017-10-02T12:23:53.787Z,1.57
2017-10-02T12:26:06.111Z,1.30
2017-10-02T12:28:14.255Z,1.40
2017-10-02T12:30:28.172Z,1.40
2017-10-02T12:32:37.894Z,1.47
2017-10-02T12:35:23.856Z,1.40
2017-10-02T12:37:39.850Z,1.57
2017-10-02T12:40:02.878Z,1.33
2017-10-02T12:42:08.994Z,1.37
2017-10-02T12:44:30.849Z,1.77
2017-10-02T12:46:44.775Z,4.30
2017-10-02T12:48:51.550Z,1.00
2017-10-02T12:50:58.196Z,1.17
2017-10-02T12:53:08.217Z,1.10
2017-10-02T12:55:25.727Z,0.80
2017-10-02T12:57:34.221Z,1.10
2017-10-02T12:59:41.353Z,0.90
2017-10-02T13:01:46.850Z,3.70
2017-10-02T13:03:54.063Z,1.20
2017-10-02T13:05:59.458Z,1.17
2017-10-02T13:08:04.944Z,1.30
2017-10-02T13:10:12.419Z,2.30
2017-10-02T13:12:18.514Z,1.03
2017-10-02T13:14:27.125Z,1.03
2017-10-02T13:16:35.625Z,1.30
2017-10-02T13:18:41.850Z,1.07
2017-10-02T13:20:47.505Z,1.00
2017-10-02T13:22:53.151Z,1.10
2017-10-02T13:25:00.389Z,1.67
2017-10-02T13:27:06.760Z,1.07
2017-10-02T13:29:12.221Z,1.00
2017-10-02T13:31:18.721Z,1.00
2017-10-02T13:33:25.379Z,1.10
2017-10-02T13:35:34.276Z,0.80
2017-10-02T13:37:41.108Z,1.07
2017-10-02T13:39:46.809Z,1.00
2017-10-02T13:41:52.895Z,1.00
2017-10-02T13:44:05.810Z,1.00
2017-10-02T13:46:11.500Z,2.10
2017-10-02T13:48:18.142Z,1.00
2017-10-02T13:50:25.549Z,1.00
2017-10-02T13:52:32.041Z,1.40
2017-10-02T13:54:38.062Z,0.97
2017-10-02T13:56:43.752Z,0.87
2017-10-02T13:58:50.946Z,1.10
2017-10-02T14:00:56.978Z,0.87
2017-10-02T14:03:03.094Z,1.13
2017-10-02T14:05:10.243Z,0.83
2017-10-02T14:07:21.630Z,0.87
2017-10-02T14:09:29.931Z,1.00
2017-10-02T14:13:55.748Z,0.90
2017-10-02T14:16:04.428Z,1.10
2017-10-02T14:18:11.190Z,0.90
2017-10-02T14:20:23.176Z,1.13
2017-10-02T14:22:28.772Z,1.07
2017-10-02T14:24:36.618Z,1.17
2017-10-02T14:26:46.371Z,0.90
2017-10-02T14:28:53.096Z,1.07
2017-10-02T14:30:58.989Z,1.30
2017-10-02T14:33:07.883Z,1.00
2017-10-02T14:35:14.438Z,1.00
2017-10-02T14:37:31.047Z,1.33
2017-10-02T14:39:38.944Z,1.67
2017-10-02T14:41:44.974Z,1.33
2017-10-02T14:43:51.817Z,1.60
2017-10-02T14:45:57.690Z,1.30
2017-10-02T14:48:03.015Z,1.30
2017-10-02T14:50:08.832Z,2.43
2017-10-02T14:52:15.147Z,232.47
2017-10-02T14:54:23.794Z,201.47
2017-10-02T14:56:30.978Z,350.77
2017-10-02T14:58:39.922Z,239.33
2017-10-02T15:00:45.424Z,254.17
2017-10-02T15:02:51.823Z,199.10
2017-10-02T15:04:57.730Z,163.50
2017-10-02T15:07:04.257Z,182.33
2017-10-02T15:09:10.774Z,165.03
2017-10-02T15:11:19.447Z,119.43
2017-10-02T15:13:27.807Z,118.07
2017-10-02T15:15:35.035Z,89.50
2017-10-02T15:17:41.294Z,81.40
2017-10-02T15:19:48.085Z,72.37
2017-10-02T15:21:54.789Z,79.20
2017-10-02T15:24:01.214Z,72.13
2017-10-02T15:26:09.835Z,47.03
2017-10-02T15:28:16.918Z,44.37
2017-10-02T15:30:25.921Z,40.70
2017-10-02T15:32:35.739Z,36.40
2017-10-02T15:34:49.297Z,28.90
2017-10-02T15:36:58.107Z,25.77
2017-10-02T15:39:08.134Z,24.30
2017-10-02T15:41:17.489Z,17.07
2017-10-02T15:43:28.783Z,14.80
2017-10-02T15:45:38.416Z,14.10
2017-10-02T15:47:49.351Z,12.13
2017-10-02T15:49:57.018Z,10.67
2017-10-02T15:52:07.990Z,9.77
2017-10-02T15:54:18.887Z,8.40
2017-10-02T15:56:34.920Z,7.17
2017-10-02T15:58:54.062Z,7.10
2017-10-02T16:01:03.535Z,9.73
2017-10-02T16:03:10.290Z,7.13
2017-10-02T16:05:18.021Z,6.33
2017-10-02T16:07:28.677Z,5.73
2017-10-02T16:09:38.680Z,5.90
2017-10-02T16:11:45.214Z,5.33
2017-10-02T16:13:51.769Z,5.50
2017-10-02T16:16:01.061Z,4.67
2017-10-02T16:18:10.876Z,4.60
2017-10-02T16:20:18.632Z,4.37
2017-10-02T16:22:34.450Z,3.73
2017-10-02T16:27:04.458Z,3.43
2017-10-02T16:29:18.402Z,3.70
2017-10-02T17:54:10.205Z,322.87
2017-10-02T17:56:22.869Z,380.67
2017-10-02T17:58:32.789Z,355.23
2017-10-02T18:01:18.371Z,356.80
2017-10-02T18:03:26.267Z,626.40
2017-10-02T18:05:38.514Z,678.30
2017-10-02T18:07:46.233Z,460.97
2017-10-02T18:10:01.582Z,501.00
2017-10-02T18:12:33.250Z,413.47
2017-10-02T18:15:00.599Z,393.17
2017-10-02T18:20:01.609Z,298.23
2017-10-02T18:22:09.450Z,262.57
2017-10-02T18:24:15.410Z,241.47
2017-10-02T18:26:32.851Z,266.37
2017-10-02T18:28:40.721Z,185.30
2017-10-02T18:30:51.396Z,198.23
2017-10-02T18:32:59.764Z,189.60
2017-10-02T18:35:41.258Z,135.57
2017-10-02T18:37:57.309Z,120.87
2017-10-02T18:40:10.490Z,125.27
2017-10-02T18:42:21.606Z,101.37
2017-10-02T18:44:28.832Z,97.50
2017-10-02T18:46:39.858Z,350.50
2017-10-02T18:48:48.781Z,480.67
2017-10-02T18:50:56.788Z,374.27
2017-10-02T18:53:02.952Z,299.30
2017-10-02T18:55:13.001Z,294.57
2017-10-02T18:57:21.348Z,230.20
2017-10-02T18:59:29.363Z,227.13
2017-10-02T19:01:41.158Z,198.50
2017-10-02T19:03:49.169Z,199.63
2017-10-02T19:05:56.120Z,154.73
2017-10-02T19:08:05.355Z,130.20
2017-10-02T19:10:14.051Z,113.23
2017-10-02T19:12:26.725Z,92.13
2017-10-02T19:14:38.527Z,92.30
2017-10-02T19:16:48.999Z,263.70
2017-10-02T19:18:55.078Z,277.17
2017-10-02T19:21:05.792Z,368.57
2017-10-02T19:23:17.825Z,481.97
2017-10-02T19:25:28.941Z,428.97
2017-10-02T19:29:03.641Z,399.77
2017-10-02T19:31:12.564Z,396.00
2017-10-02T19:33:22.228Z,320.93
2017-10-02T19:35:30.136Z,410.83
2017-10-02T19:37:42.728Z,174.67
2017-10-02T19:39:50.548Z,135.47
2017-10-02T19:41:57.598Z,235.53
2017-10-02T19:44:05.974Z,114.20
2017-10-02T19:46:13.347Z,82.77
2017-10-02T19:48:20.252Z,86.40
2017-10-02T19:50:29.221Z,444.30
2017-10-02T19:52:39.004Z,436.43
2017-10-02T19:54:54.365Z,548.63
2017-10-02T19:57:00.255Z,459.77
2017-10-02T19:59:10.497Z,401.83
2017-10-02T20:01:19.779Z,427.33
2017-10-02T20:03:31.103Z,446.23
2017-10-02T20:05:42.011Z,427.60
2017-10-02T20:07:48.819Z,319.10
2017-10-02T20:09:59.589Z,273.47
2017-10-02T20:12:09.803Z,266.10
2017-10-02T20:14:17.643Z,391.43
2017-10-02T20:16:24.307Z,386.43
2017-10-02T20:20:47.892Z,334.63
2017-10-02T20:22:57.341Z,237.03
2017-10-02T20:25:04.211Z,195.70
2017-10-02T20:27:15.706Z,223.07
2017-10-02T20:29:22.796Z,126.07
2017-10-02T20:31:50.710Z,256.13
2017-10-02T20:34:02.586Z,127.53
2017-10-02T20:36:12.049Z,75.10
2017-10-02T20:38:20.682Z,63.97
2017-10-02T20:40:28.912Z,47.73
2017-10-02T20:42:40.195Z,35.67
2017-10-02T20:44:48.660Z,44.83
2017-10-02T20:46:59.609Z,42.20
2017-10-02T20:49:07.119Z,32.93
2017-10-02T20:51:13.927Z,29.73
2017-10-02T20:53:20.926Z,30.03
2017-10-02T20:55:28.746Z,29.30
2017-10-02T20:57:40.052Z,21.30
2017-10-02T20:59:51.396Z,27.07
2017-10-02T21:02:00.027Z,19.90
2017-10-02T21:04:09.945Z,17.97
2017-10-02T21:06:24.402Z,20.90
2017-10-02T21:08:36.553Z,18.10
2017-10-02T21:10:54.770Z,54.37
2017-10-02T21:13:04.711Z,91.07
2017-10-02T21:15:12.144Z,261.80
2017-10-02T21:17:19.593Z,228.70
2017-10-02T21:19:26.996Z,181.70
2017-10-02T21:21:34.862Z,120.10
2017-10-02T21:23:46.963Z,113.57
2017-10-02T21:25:53.705Z,89.20
2017-10-02T21:27:59.347Z,66.83
2017-10-02T21:30:08.474Z,54.67
2017-10-02T21:32:14.987Z,51.97
2017-10-02T21:36:46.346Z,35.27
2017-10-02T21:38:54.013Z,32.67
2017-10-02T21:41:01.347Z,20.93
2017-10-02T21:43:07.785Z,21.10
2017-10-02T21:45:14.280Z,19.90
2017-10-02T21:47:21.479Z,16.17
2017-10-02T21:49:29.330Z,14.33
2017-10-02T21:51:36.153Z,17.87
2017-10-02T21:53:44.881Z,19.27
2017-10-02T21:55:53.615Z,15.37
2017-10-02T21:58:00.185Z,15.60
2017-10-02T22:00:08.894Z,12.67
2017-10-02T22:02:16.232Z,11.83
2017-10-02T22:04:23.936Z,11.40
2017-10-02T22:06:40.796Z,11.37
2017-10-02T22:08:52.101Z,9.40
2017-10-02T22:11:00.368Z,12.50
2017-10-02T22:13:08.013Z,79.97
2017-10-02T22:15:21.541Z,66.40
2017-10-02T22:17:30.758Z,83.73
2017-10-02T22:19:43.700Z,76.23
2017-10-02T22:21:51.197Z,27.27
2017-10-02T22:26:28.175Z,11.70
2017-10-02T22:30:51.222Z,110.00
2017-10-02T22:32:57.838Z,88.97
2017-10-02T22:35:03.820Z,50.37
2017-10-02T22:37:09.481Z,23.73
2017-10-02T22:39:16.907Z,14.10
2017-10-02T22:41:24.075Z,14.10
2017-10-02T22:43:31.435Z,15.83
2017-10-02T22:45:44.063Z,13.77
2017-10-02T22:47:52.462Z,12.80
2017-10-02T22:49:58.782Z,22.70
2017-10-02T22:52:05.557Z,102.53
2017-10-02T22:54:15.493Z,256.10
2017-10-02T22:56:22.575Z,231.10
2017-10-02T22:58:28.917Z,161.40
2017-10-02T23:00:38.729Z,162.30
2017-10-02T23:02:49.610Z,148.00
2017-10-02T23:04:57.160Z,118.57
2017-10-02T23:07:04.001Z,79.37
2017-10-02T23:09:13.817Z,89.30
2017-10-02T23:11:21.724Z,70.63
2017-10-02T23:13:30.007Z,63.37
2017-10-02T23:15:38.510Z,68.27
2017-10-02T23:17:49.955Z,432.27
2017-10-02T23:20:00.647Z,343.50
2017-10-02T23:22:22.542Z,247.83
2017-10-02T23:24:39.111Z,210.00
2017-10-02T23:26:53.618Z,164.93
2017-10-02T23:31:34.958Z,87.53
2017-10-02T23:33:47.208Z,94.10
2017-10-02T23:36:21.874Z,69.57
2017-10-02T23:38:54.525Z,60.90
2017-10-02T23:43:55.491Z,45.13
2017-10-02T23:46:16.619Z,42.90
2017-10-02T23:48:24.462Z,51.63
2017-10-02T23:50:30.226Z,45.90
2017-10-02T23:52:36.477Z,38.50
2017-10-02T23:54:46.501Z,27.33
2017-10-02T23:56:52.490Z,25.73
2017-10-02T23:58:59.027Z,67.37
